sensor_id;sensor_type;location;lat;lon;timestamp;temperature;humidity
21676;DHT22;10999;51.332;9.458;2023-10-31T00:01:20;12.10;99.90
21676;DHT22;10999;51.332;9.458;2023-10-31T00:03:48;12.00;99.90
21676;DHT22;10999;51.332;9.458;2023-10-31T00:06:15;12.00;99.90
21676;DHT22;10999;51.332;9.458;2023-10-31T00:08:41;12.00;99.90
21676;DHT22;10999;51.332;9.458;2023-10-31T00:11:08;12.10;99.90
21676;DHT22;10999;51.332;9.458;2023-10-31T00:13:35;12.00;99.90
21676;DHT22;10999;51.332;9.458;2023-10-31T00:16:02;12.10;99.90
21676;DHT22;10999;51.332;9.458;2023-10-31T00:18:29;12.10;99.90
21676;DHT22;10999;51.332;9.458;2023-10-31T00:20:55;12.10;99.90
21676;DHT22;10999;51.332;9.458;2023-10-31T00:23:22;12.10;99.90
21676;DHT22;10999;51.332;9.458;2023-10-31T00:25:49;12.10;99.90
21676;DHT22;10999;51.332;9.458;2023-10-31T00:28:16;12.10;99.90
21676;DHT22;10999;51.332;9.458;2023-10-31T00:30:43;12.10;99.90
21676;DHT22;10999;51.332;9.458;2023-10-31T00:33:09;12.10;99.90
21676;DHT22;10999;51.332;9.458;2023-10-31T00:35:36;12.10;99.90
21676;DHT22;10999;51.332;9.458;2023-10-31T00:38:04;12.10;99.90
21676;DHT22;10999;51.332;9.458;2023-10-31T00:40:31;12.10;99.90
21676;DHT22;10999;51.332;9.458;2023-10-31T00:42:57;12.10;99.90
21676;DHT22;10999;51.332;9.458;2023-10-31T00:45:25;12.10;99.90
21676;DHT22;10999;51.332;9.458;2023-10-31T00:47:52;12.10;99.90
21676;DHT22;10999;51.332;9.458;2023-10-31T00:50:19;12.20;99.90
21676;DHT22;10999;51.332;9.458;2023-10-31T00:52:46;12.10;99.90
21676;DHT22;10999;51.332;9.458;2023-10-31T00:55:12;12.10;99.90
21676;DHT22;10999;51.332;9.458;2023-10-31T00:57:39;12.20;99.90
21676;DHT22;10999;51.332;9.458;2023-10-31T01:00:07;12.20;99.90
21676;DHT22;10999;51.332;9.458;2023-10-31T01:02:35;12.20;99.90
21676;DHT22;10999;51.332;9.458;2023-10-31T01:05:02;12.10;99.90
21676;DHT22;10999;51.332;9.458;2023-10-31T01:07:29;12.10;99.90
21676;DHT22;10999;51.332;9.458;2023-10-31T01:09:56;12.10;99.90
21676;DHT22;10999;51.332;9.458;2023-10-31T01:12:22;12.10;99.90
21676;DHT22;10999;51.332;9.458;2023-10-31T01:14:49;12.10;99.90
21676;DHT22;10999;51.332;9.458;2023-10-31T01:17:16;12.10;99.90
21676;DHT22;10999;51.332;9.458;2023-10-31T01:19:43;12.20;99.90
21676;DHT22;10999;51.332;9.458;2023-10-31T01:22:09;12.20;99.90
21676;DHT22;10999;51.332;9.458;2023-10-31T01:24:36;12.10;99.90
21676;DHT22;10999;51.332;9.458;2023-10-31T01:27:03;12.10;99.90
21676;DHT22;10999;51.332;9.458;2023-10-31T01:29:30;12.10;99.90
21676;DHT22;10999;51.332;9.458;2023-10-31T01:31:57;12.10;99.90
21676;DHT22;10999;51.332;9.458;2023-10-31T01:34:28;12.20;99.90
21676;DHT22;10999;51.332;9.458;2023-10-31T01:36:55;12.20;99.90
21676;DHT22;10999;51.332;9.458;2023-10-31T01:39:22;12.20;99.90
21676;DHT22;10999;51.332;9.458;2023-10-31T01:41:49;12.20;99.90
21676;DHT22;10999;51.332;9.458;2023-10-31T01:44:15;12.20;99.90
21676;DHT22;10999;51.332;9.458;2023-10-31T01:46:42;12.10;99.90
21676;DHT22;10999;51.332;9.458;2023-10-31T01:49:09;12.10;99.90
21676;DHT22;10999;51.332;9.458;2023-10-31T01:51:36;12.10;99.90
21676;DHT22;10999;51.332;9.458;2023-10-31T01:54:03;12.20;99.90
21676;DHT22;10999;51.332;9.458;2023-10-31T01:56:30;12.10;99.90
21676;DHT22;10999;51.332;9.458;2023-10-31T01:58:57;12.10;99.90
21676;DHT22;10999;51.332;9.458;2023-10-31T02:01:24;12.20;99.90
21676;DHT22;10999;51.332;9.458;2023-10-31T02:03:53;12.10;99.90
21676;DHT22;10999;51.332;9.458;2023-10-31T02:06:20;12.10;99.90
21676;DHT22;10999;51.332;9.458;2023-10-31T02:08:48;12.10;99.90
21676;DHT22;10999;51.332;9.458;2023-10-31T02:11:15;12.10;99.90
21676;DHT22;10999;51.332;9.458;2023-10-31T02:13:42;12.10;99.90
21676;DHT22;10999;51.332;9.458;2023-10-31T02:16:09;12.10;99.90
21676;DHT22;10999;51.332;9.458;2023-10-31T02:18:36;12.10;99.90
21676;DHT22;10999;51.332;9.458;2023-10-31T02:21:03;12.00;99.90
21676;DHT22;10999;51.332;9.458;2023-10-31T02:23:29;12.00;99.90
21676;DHT22;10999;51.332;9.458;2023-10-31T02:25:57;12.00;99.90
21676;DHT22;10999;51.332;9.458;2023-10-31T02:28:24;12.00;99.90
21676;DHT22;10999;51.332;9.458;2023-10-31T02:30:54;12.00;99.90
21676;DHT22;10999;51.332;9.458;2023-10-31T02:33:21;11.90;99.90
21676;DHT22;10999;51.332;9.458;2023-10-31T02:44:01;11.70;94.90
21676;DHT22;10999;51.332;9.458;2023-10-31T02:52:37;11.50;93.80
21676;DHT22;10999;51.332;9.458;2023-10-31T02:55:04;11.50;94.30
21676;DHT22;10999;51.332;9.458;2023-10-31T03:05:52;11.40;91.10
21676;DHT22;10999;51.332;9.458;2023-10-31T03:08:19;11.40;90.50
21676;DHT22;10999;51.332;9.458;2023-10-31T03:13:38;11.30;90.80
21676;DHT22;10999;51.332;9.458;2023-10-31T03:16:06;11.30;90.30
21676;DHT22;10999;51.332;9.458;2023-10-31T03:40:26;11.30;86.30
21676;DHT22;10999;51.332;9.458;2023-10-31T03:42:53;11.30;88.10
21676;DHT22;10999;51.332;9.458;2023-10-31T04:07:29;11.20;86.40
21676;DHT22;10999;51.332;9.458;2023-10-31T04:09:56;11.20;87.10
21676;DHT22;10999;51.332;9.458;2023-10-31T04:12:23;11.20;86.40
21676;DHT22;10999;51.332;9.458;2023-10-31T04:14:50;11.20;86.80
21676;DHT22;10999;51.332;9.458;2023-10-31T04:17:17;11.10;86.50
21676;DHT22;10999;51.332;9.458;2023-10-31T04:41:32;11.00;87.00
21676;DHT22;10999;51.332;9.458;2023-10-31T04:55:40;11.00;89.30
21676;DHT22;10999;51.332;9.458;2023-10-31T04:58:07;10.90;89.60
21676;DHT22;10999;51.332;9.458;2023-10-31T05:00:34;10.90;90.20
21676;DHT22;10999;51.332;9.458;2023-10-31T05:03:02;10.90;91.20
21676;DHT22;10999;51.332;9.458;2023-10-31T05:05:29;10.90;91.50
21676;DHT22;10999;51.332;9.458;2023-10-31T07:30:53;10.50;94.30
21676;DHT22;10999;51.332;9.458;2023-10-31T07:33:20;10.50;94.30
21676;DHT22;10999;51.332;9.458;2023-10-31T08:17:40;10.90;91.70
21676;DHT22;10999;51.332;9.458;2023-10-31T08:23:28;10.90;93.70
21676;DHT22;10999;51.332;9.458;2023-10-31T08:25:55;10.90;94.60
21676;DHT22;10999;51.332;9.458;2023-10-31T08:57:32;10.70;93.90
21676;DHT22;10999;51.332;9.458;2023-10-31T09:00:00;10.80;94.60
21676;DHT22;10999;51.332;9.458;2023-10-31T09:30:15;11.10;85.50
21676;DHT22;10999;51.332;9.458;2023-10-31T09:32:42;11.20;85.40
21676;DHT22;10999;51.332;9.458;2023-10-31T09:35:09;11.20;85.80
21676;DHT22;10999;51.332;9.458;2023-10-31T09:37:36;11.20;85.80
21676;DHT22;10999;51.332;9.458;2023-10-31T09:40:03;11.30;86.50
21676;DHT22;10999;51.332;9.458;2023-10-31T09:42:30;11.30;86.00
21676;DHT22;10999;51.332;9.458;2023-10-31T09:44:57;11.40;85.10
21676;DHT22;10999;51.332;9.458;2023-10-31T09:47:29;11.40;84.90
21676;DHT22;10999;51.332;9.458;2023-10-31T09:49:58;11.50;85.20
21676;DHT22;10999;51.332;9.458;2023-10-31T09:52:25;11.50;85.50
21676;DHT22;10999;51.332;9.458;2023-10-31T09:54:52;11.60;86.10
21676;DHT22;10999;51.332;9.458;2023-10-31T09:57:19;11.60;87.10
21676;DHT22;10999;51.332;9.458;2023-10-31T09:59:46;11.60;87.80
21676;DHT22;10999;51.332;9.458;2023-10-31T10:02:13;11.70;87.30
21676;DHT22;10999;51.332;9.458;2023-10-31T10:04:40;11.70;85.10
21676;DHT22;10999;51.332;9.458;2023-10-31T10:07:08;11.70;83.30
21676;DHT22;10999;51.332;9.458;2023-10-31T10:09:35;11.80;79.50
21676;DHT22;10999;51.332;9.458;2023-10-31T10:15:12;11.80;78.10
21676;DHT22;10999;51.332;9.458;2023-10-31T10:17:39;11.70;79.50
21676;DHT22;10999;51.332;9.458;2023-10-31T10:20:14;11.70;79.90
21676;DHT22;10999;51.332;9.458;2023-10-31T10:22:42;11.60;80.70
21676;DHT22;10999;51.332;9.458;2023-10-31T10:25:11;11.60;81.30
21676;DHT22;10999;51.332;9.458;2023-10-31T10:28:09;11.60;81.70
21676;DHT22;10999;51.332;9.458;2023-10-31T10:30:39;11.70;82.80
21676;DHT22;10999;51.332;9.458;2023-10-31T10:33:06;11.70;82.10
21676;DHT22;10999;51.332;9.458;2023-10-31T10:35:33;11.80;82.50
21676;DHT22;10999;51.332;9.458;2023-10-31T10:38:02;11.70;81.60
21676;DHT22;10999;51.332;9.458;2023-10-31T10:40:30;11.80;83.00
21676;DHT22;10999;51.332;9.458;2023-10-31T10:42:59;11.80;81.80
21676;DHT22;10999;51.332;9.458;2023-10-31T10:45:27;11.80;80.50
21676;DHT22;10999;51.332;9.458;2023-10-31T10:47:57;11.80;81.10
21676;DHT22;10999;51.332;9.458;2023-10-31T10:50:26;11.80;80.90
21676;DHT22;10999;51.332;9.458;2023-10-31T10:56:38;11.80;80.10
21676;DHT22;10999;51.332;9.458;2023-10-31T11:02:32;11.70;83.30
21676;DHT22;10999;51.332;9.458;2023-10-31T11:04:59;11.80;83.10
21676;DHT22;10999;51.332;9.458;2023-10-31T11:07:28;11.80;83.70
21676;DHT22;10999;51.332;9.458;2023-10-31T11:09:55;11.80;83.20
21676;DHT22;10999;51.332;9.458;2023-10-31T11:12:25;11.80;82.20
21676;DHT22;10999;51.332;9.458;2023-10-31T11:14:52;11.90;83.50
21676;DHT22;10999;51.332;9.458;2023-10-31T11:17:31;11.90;82.40
21676;DHT22;10999;51.332;9.458;2023-10-31T11:19:59;12.00;80.60
21676;DHT22;10999;51.332;9.458;2023-10-31T11:22:43;12.00;81.60
21676;DHT22;10999;51.332;9.458;2023-10-31T11:25:14;12.00;81.70
21676;DHT22;10999;51.332;9.458;2023-10-31T11:27:52;12.00;81.60
21676;DHT22;10999;51.332;9.458;2023-10-31T11:30:28;12.00;80.80
21676;DHT22;10999;51.332;9.458;2023-10-31T11:32:58;12.10;80.10
21676;DHT22;10999;51.332;9.458;2023-10-31T11:35:29;12.00;78.50
21676;DHT22;10999;51.332;9.458;2023-10-31T11:38:31;12.00;78.10
21676;DHT22;10999;51.332;9.458;2023-10-31T11:41:01;11.90;78.00
21676;DHT22;10999;51.332;9.458;2023-10-31T11:46:19;12.00;80.20
21676;DHT22;10999;51.332;9.458;2023-10-31T11:48:49;12.10;80.40
21676;DHT22;10999;51.332;9.458;2023-10-31T11:51:19;12.20;81.10
21676;DHT22;10999;51.332;9.458;2023-10-31T11:53:48;12.20;78.80
21676;DHT22;10999;51.332;9.458;2023-10-31T11:56:16;12.30;79.10
21676;DHT22;10999;51.332;9.458;2023-10-31T11:58:43;12.30;79.40
21676;DHT22;10999;51.332;9.458;2023-10-31T12:01:11;12.50;79.90
21676;DHT22;10999;51.332;9.458;2023-10-31T12:03:42;12.70;79.10
21676;DHT22;10999;51.332;9.458;2023-10-31T12:06:10;12.90;78.30
21676;DHT22;10999;51.332;9.458;2023-10-31T12:08:38;13.00;74.60
21676;DHT22;10999;51.332;9.458;2023-10-31T12:11:17;13.20;75.30
21676;DHT22;10999;51.332;9.458;2023-10-31T12:14:02;13.20;73.60
21676;DHT22;10999;51.332;9.458;2023-10-31T12:16:34;13.20;72.70
21676;DHT22;10999;51.332;9.458;2023-10-31T12:19:10;13.20;74.50
21676;DHT22;10999;51.332;9.458;2023-10-31T12:21:45;13.30;74.90
21676;DHT22;10999;51.332;9.458;2023-10-31T12:24:18;13.20;72.10
21676;DHT22;10999;51.332;9.458;2023-10-31T12:26:45;13.10;71.70
21676;DHT22;10999;51.332;9.458;2023-10-31T12:29:15;13.10;71.10
21676;DHT22;10999;51.332;9.458;2023-10-31T12:31:43;13.00;71.50
21676;DHT22;10999;51.332;9.458;2023-10-31T12:34:13;13.00;69.90
21676;DHT22;10999;51.332;9.458;2023-10-31T12:36:40;12.90;71.60
21676;DHT22;10999;51.332;9.458;2023-10-31T12:39:10;12.90;72.30
21676;DHT22;10999;51.332;9.458;2023-10-31T12:41:39;12.80;72.30
21676;DHT22;10999;51.332;9.458;2023-10-31T12:44:08;12.80;73.20
21676;DHT22;10999;51.332;9.458;2023-10-31T12:46:41;12.80;71.50
21676;DHT22;10999;51.332;9.458;2023-10-31T12:49:18;12.70;71.60
21676;DHT22;10999;51.332;9.458;2023-10-31T12:52:02;12.70;72.50
21676;DHT22;10999;51.332;9.458;2023-10-31T12:54:34;12.60;72.80
21676;DHT22;10999;51.332;9.458;2023-10-31T12:57:03;12.70;73.50
21676;DHT22;10999;51.332;9.458;2023-10-31T12:59:32;12.60;73.20
21676;DHT22;10999;51.332;9.458;2023-10-31T13:02:00;12.70;72.80
21676;DHT22;10999;51.332;9.458;2023-10-31T13:04:28;12.70;72.70
21676;DHT22;10999;51.332;9.458;2023-10-31T13:09:32;12.60;72.40
21676;DHT22;10999;51.332;9.458;2023-10-31T13:12:03;12.70;73.40
21676;DHT22;10999;51.332;9.458;2023-10-31T13:14:30;12.60;71.50
21676;DHT22;10999;51.332;9.458;2023-10-31T13:16:57;12.70;73.90
21676;DHT22;10999;51.332;9.458;2023-10-31T13:19:24;12.70;73.70
21676;DHT22;10999;51.332;9.458;2023-10-31T13:21:51;12.70;72.10
21676;DHT22;10999;51.332;9.458;2023-10-31T13:24:18;12.70;73.10
21676;DHT22;10999;51.332;9.458;2023-10-31T13:26:45;12.70;71.60
21676;DHT22;10999;51.332;9.458;2023-10-31T13:29:19;12.70;70.70
21676;DHT22;10999;51.332;9.458;2023-10-31T13:31:46;12.70;71.90
21676;DHT22;10999;51.332;9.458;2023-10-31T13:34:12;12.70;71.90
21676;DHT22;10999;51.332;9.458;2023-10-31T13:36:39;12.70;71.20
21676;DHT22;10999;51.332;9.458;2023-10-31T13:39:06;12.70;72.30
21676;DHT22;10999;51.332;9.458;2023-10-31T13:41:33;12.60;70.80
21676;DHT22;10999;51.332;9.458;2023-10-31T13:44:00;12.60;71.40
21676;DHT22;10999;51.332;9.458;2023-10-31T13:46:29;12.60;71.70
21676;DHT22;10999;51.332;9.458;2023-10-31T13:48:58;12.60;72.70
21676;DHT22;10999;51.332;9.458;2023-10-31T13:51:25;12.60;73.00
21676;DHT22;10999;51.332;9.458;2023-10-31T13:53:52;12.70;73.30
21676;DHT22;10999;51.332;9.458;2023-10-31T13:56:19;12.90;73.10
21676;DHT22;10999;51.332;9.458;2023-10-31T13:58:46;13.10;72.70
21676;DHT22;10999;51.332;9.458;2023-10-31T14:01:14;13.20;70.90
21676;DHT22;10999;51.332;9.458;2023-10-31T14:03:41;13.30;69.80
21676;DHT22;10999;51.332;9.458;2023-10-31T14:06:11;13.40;68.30
21676;DHT22;10999;51.332;9.458;2023-10-31T14:08:39;13.50;69.10
21676;DHT22;10999;51.332;9.458;2023-10-31T14:11:06;13.40;68.00
21676;DHT22;10999;51.332;9.458;2023-10-31T14:13:33;13.40;67.20
21676;DHT22;10999;51.332;9.458;2023-10-31T14:15:59;13.30;65.20
21676;DHT22;10999;51.332;9.458;2023-10-31T14:18:27;13.30;66.10
21676;DHT22;10999;51.332;9.458;2023-10-31T14:20:54;13.20;68.20
21676;DHT22;10999;51.332;9.458;2023-10-31T14:23:22;13.20;66.10
21676;DHT22;10999;51.332;9.458;2023-10-31T14:25:49;13.20;65.90
21676;DHT22;10999;51.332;9.458;2023-10-31T14:28:16;13.20;66.30
21676;DHT22;10999;51.332;9.458;2023-10-31T14:30:44;13.30;67.00
21676;DHT22;10999;51.332;9.458;2023-10-31T14:33:15;13.20;64.60
21676;DHT22;10999;51.332;9.458;2023-10-31T14:35:42;13.10;66.60
21676;DHT22;10999;51.332;9.458;2023-10-31T14:38:09;13.10;66.40
21676;DHT22;10999;51.332;9.458;2023-10-31T14:40:36;13.10;65.50
21676;DHT22;10999;51.332;9.458;2023-10-31T14:43:03;13.00;66.00
21676;DHT22;10999;51.332;9.458;2023-10-31T14:45:30;13.00;67.10
21676;DHT22;10999;51.332;9.458;2023-10-31T14:47:57;12.90;68.20
21676;DHT22;10999;51.332;9.458;2023-10-31T14:50:24;12.80;67.50
21676;DHT22;10999;51.332;9.458;2023-10-31T14:52:50;12.80;68.00
21676;DHT22;10999;51.332;9.458;2023-10-31T14:55:18;12.80;69.00
21676;DHT22;10999;51.332;9.458;2023-10-31T14:57:45;12.70;69.30
21676;DHT22;10999;51.332;9.458;2023-10-31T15:00:12;12.60;69.10
21676;DHT22;10999;51.332;9.458;2023-10-31T15:02:42;12.50;70.20
21676;DHT22;10999;51.332;9.458;2023-10-31T15:05:10;12.50;70.30
21676;DHT22;10999;51.332;9.458;2023-10-31T15:07:37;12.40;71.50
21676;DHT22;10999;51.332;9.458;2023-10-31T15:10:04;12.40;71.60
21676;DHT22;10999;51.332;9.458;2023-10-31T15:12:31;12.30;71.10
21676;DHT22;10999;51.332;9.458;2023-10-31T15:14:58;12.30;71.90
21676;DHT22;10999;51.332;9.458;2023-10-31T15:17:25;12.20;71.90
21676;DHT22;10999;51.332;9.458;2023-10-31T15:19:52;12.20;72.20
21676;DHT22;10999;51.332;9.458;2023-10-31T15:22:19;12.10;72.80
21676;DHT22;10999;51.332;9.458;2023-10-31T15:24:46;12.10;72.80
21676;DHT22;10999;51.332;9.458;2023-10-31T15:27:13;12.00;74.10
21676;DHT22;10999;51.332;9.458;2023-10-31T15:29:44;12.00;72.00
21676;DHT22;10999;51.332;9.458;2023-10-31T15:32:11;12.00;72.60
21676;DHT22;10999;51.332;9.458;2023-10-31T15:34:39;11.90;73.20
21676;DHT22;10999;51.332;9.458;2023-10-31T15:37:09;11.90;73.70
21676;DHT22;10999;51.332;9.458;2023-10-31T15:39:38;11.80;74.20
21676;DHT22;10999;51.332;9.458;2023-10-31T15:42:06;11.80;73.30
21676;DHT22;10999;51.332;9.458;2023-10-31T15:44:35;11.70;72.70
21676;DHT22;10999;51.332;9.458;2023-10-31T15:47:03;11.70;71.70
21676;DHT22;10999;51.332;9.458;2023-10-31T15:49:30;11.70;72.70
21676;DHT22;10999;51.332;9.458;2023-10-31T15:51:57;11.60;72.50
21676;DHT22;10999;51.332;9.458;2023-10-31T15:54:27;11.60;73.20
21676;DHT22;10999;51.332;9.458;2023-10-31T15:56:55;11.60;72.90
21676;DHT22;10999;51.332;9.458;2023-10-31T15:59:22;11.60;73.00
21676;DHT22;10999;51.332;9.458;2023-10-31T16:01:49;11.60;73.60
21676;DHT22;10999;51.332;9.458;2023-10-31T16:04:16;11.50;73.90
21676;DHT22;10999;51.332;9.458;2023-10-31T16:06:43;11.40;74.00
21676;DHT22;10999;51.332;9.458;2023-10-31T16:09:11;11.40;73.60
21676;DHT22;10999;51.332;9.458;2023-10-31T16:11:38;11.50;74.40
21676;DHT22;10999;51.332;9.458;2023-10-31T16:14:06;11.40;74.50
21676;DHT22;10999;51.332;9.458;2023-10-31T16:16:34;11.40;75.40
21676;DHT22;10999;51.332;9.458;2023-10-31T16:19:01;11.30;76.00
21676;DHT22;10999;51.332;9.458;2023-10-31T16:21:27;11.30;76.30
21676;DHT22;10999;51.332;9.458;2023-10-31T16:23:54;11.20;77.30
21676;DHT22;10999;51.332;9.458;2023-10-31T16:27:07;11.20;78.50
21676;DHT22;10999;51.332;9.458;2023-10-31T16:29:34;11.20;78.60
21676;DHT22;10999;51.332;9.458;2023-10-31T16:32:01;11.10;79.20
21676;DHT22;10999;51.332;9.458;2023-10-31T16:34:29;11.00;79.80
21676;DHT22;10999;51.332;9.458;2023-10-31T16:36:56;11.00;80.70
21676;DHT22;10999;51.332;9.458;2023-10-31T16:39:25;11.00;81.00
21676;DHT22;10999;51.332;9.458;2023-10-31T16:41:52;11.00;81.00
21676;DHT22;10999;51.332;9.458;2023-10-31T16:44:20;10.90;80.90
21676;DHT22;10999;51.332;9.458;2023-10-31T17:01:16;11.00;78.80
21676;DHT22;10999;51.332;9.458;2023-10-31T17:07:12;11.00;79.40
21676;DHT22;10999;51.332;9.458;2023-10-31T17:20:47;10.80;80.50
21676;DHT22;10999;51.332;9.458;2023-10-31T17:23:14;10.80;81.70
21676;DHT22;10999;51.332;9.458;2023-10-31T17:25:41;10.80;81.30
21676;DHT22;10999;51.332;9.458;2023-10-31T17:28:09;10.70;81.50
21676;DHT22;10999;51.332;9.458;2023-10-31T17:30:35;10.60;82.10
21676;DHT22;10999;51.332;9.458;2023-10-31T17:33:02;10.60;82.90
21676;DHT22;10999;51.332;9.458;2023-10-31T17:35:29;10.50;83.50
21676;DHT22;10999;51.332;9.458;2023-10-31T17:37:58;10.50;83.70
21676;DHT22;10999;51.332;9.458;2023-10-31T17:43:16;10.40;84.80
21676;DHT22;10999;51.332;9.458;2023-10-31T17:48:36;10.40;85.40
21676;DHT22;10999;51.332;9.458;2023-10-31T17:54:28;10.30;86.10
21676;DHT22;10999;51.332;9.458;2023-10-31T17:59:51;10.20;87.00
21676;DHT22;10999;51.332;9.458;2023-10-31T18:02:19;10.10;87.70
21676;DHT22;10999;51.332;9.458;2023-10-31T18:04:46;10.10;88.20
21676;DHT22;10999;51.332;9.458;2023-10-31T18:07:13;9.90;88.90
21676;DHT22;10999;51.332;9.458;2023-10-31T20:03:45;9.80;99.90
21676;DHT22;10999;51.332;9.458;2023-10-31T20:12:30;9.80;99.90
